sensor_id;sensor_type;location;lat;lon;timestamp;P1;durP1;ratioP1;P2;durP2;ratioP2
40511;SDS011;26213;52.446;20.706;2022-10-01T00:00:51;29.88;;;19.88;;
40511;SDS011;26213;52.446;20.706;2022-10-01T00:03:18;29.27;;;20.63;;
40511;SDS011;26213;52.446;20.706;2022-10-01T00:05:45;30.67;;;21.07;;
40511;SDS011;26213;52.446;20.706;2022-10-01T00:08:13;31.58;;;21.85;;
40511;SDS011;26213;52.446;20.706;2022-10-01T00:10:43;33.38;;;23.20;;
40511;SDS011;26213;52.446;20.706;2022-10-01T00:13:09;37.03;;;24.83;;
40511;SDS011;26213;52.446;20.706;2022-10-01T00:15:38;36.05;;;23.30;;
40511;SDS011;26213;52.446;20.706;2022-10-01T00:18:04;35.25;;;23.65;;
40511;SDS011;26213;52.446;20.706;2022-10-01T00:20:30;33.60;;;23.20;;
40511;SDS011;26213;52.446;20.706;2022-10-01T00:22:55;41.53;;;22.35;;
40511;SDS011;26213;52.446;20.706;2022-10-01T00:25:21;31.60;;;22.10;;
40511;SDS011;26213;52.446;20.706;2022-10-01T00:27:49;30.58;;;23.83;;
40511;SDS011;26213;52.446;20.706;2022-10-01T00:30:15;31.75;;;22.40;;
40511;SDS011;26213;52.446;20.706;2022-10-01T00:32:40;31.42;;;22.75;;
40511;SDS011;26213;52.446;20.706;2022-10-01T00:35:06;30.30;;;21.33;;
40511;SDS011;26213;52.446;20.706;2022-10-01T00:37:36;32.65;;;22.58;;
40511;SDS011;26213;52.446;20.706;2022-10-01T00:40:05;33.95;;;24.08;;
40511;SDS011;26213;52.446;20.706;2022-10-01T00:42:31;41.00;;;23.92;;
40511;SDS011;26213;52.446;20.706;2022-10-01T00:44:57;38.03;;;23.63;;
40511;SDS011;26213;52.446;20.706;2022-10-01T00:47:26;37.60;;;23.27;;
40511;SDS011;26213;52.446;20.706;2022-10-01T00:50:00;32.03;;;21.98;;
40511;SDS011;26213;52.446;20.706;2022-10-01T00:52:31;32.80;;;22.45;;
40511;SDS011;26213;52.446;20.706;2022-10-01T00:55:00;33.15;;;22.75;;
40511;SDS011;26213;52.446;20.706;2022-10-01T00:57:29;37.33;;;24.92;;
40511;SDS011;26213;52.446;20.706;2022-10-01T00:59:55;35.55;;;26.17;;
40511;SDS011;26213;52.446;20.706;2022-10-01T01:02:24;32.83;;;24.70;;
40511;SDS011;26213;52.446;20.706;2022-10-01T01:04:49;39.15;;;24.10;;
40511;SDS011;26213;52.446;20.706;2022-10-01T01:07:15;32.80;;;23.02;;
40511;SDS011;26213;52.446;20.706;2022-10-01T01:09:45;32.22;;;23.55;;
40511;SDS011;26213;52.446;20.706;2022-10-01T01:20:31;34.80;;;25.58;;
40511;SDS011;26213;52.446;20.706;2022-10-01T01:23:24;34.20;;;24.98;;
40511;SDS011;26213;52.446;20.706;2022-10-01T01:29:19;35.63;;;26.00;;
40511;SDS011;26213;52.446;20.706;2022-10-01T01:31:49;34.95;;;24.65;;
40511;SDS011;26213;52.446;20.706;2022-10-01T01:34:16;39.80;;;25.75;;
40511;SDS011;26213;52.446;20.706;2022-10-01T01:36:46;35.60;;;25.52;;
40511;SDS011;26213;52.446;20.706;2022-10-01T01:39:18;33.25;;;23.67;;
40511;SDS011;26213;52.446;20.706;2022-10-01T01:41:48;34.08;;;23.92;;
40511;SDS011;26213;52.446;20.706;2022-10-01T01:44:16;31.13;;;23.83;;
40511;SDS011;26213;52.446;20.706;2022-10-01T01:46:46;35.03;;;24.17;;
40511;SDS011;26213;52.446;20.706;2022-10-01T01:49:14;38.63;;;26.95;;
40511;SDS011;26213;52.446;20.706;2022-10-01T01:51:46;53.05;;;43.72;;
40511;SDS011;26213;52.446;20.706;2022-10-01T01:54:16;45.28;;;37.75;;
40511;SDS011;26213;52.446;20.706;2022-10-01T01:56:42;39.92;;;28.70;;
40511;SDS011;26213;52.446;20.706;2022-10-01T01:59:07;38.42;;;26.45;;
40511;SDS011;26213;52.446;20.706;2022-10-01T02:01:34;36.88;;;26.10;;
40511;SDS011;26213;52.446;20.706;2022-10-01T02:04:03;41.35;;;30.58;;
40511;SDS011;26213;52.446;20.706;2022-10-01T02:11:51;40.75;;;29.23;;
40511;SDS011;26213;52.446;20.706;2022-10-01T02:17:52;40.97;;;27.48;;
40511;SDS011;26213;52.446;20.706;2022-10-01T02:20:34;41.38;;;29.17;;
40511;SDS011;26213;52.446;20.706;2022-10-01T02:23:14;45.80;;;33.55;;
40511;SDS011;26213;52.446;20.706;2022-10-01T02:25:50;50.78;;;36.30;;
40511;SDS011;26213;52.446;20.706;2022-10-01T02:28:20;45.25;;;32.55;;
40511;SDS011;26213;52.446;20.706;2022-10-01T02:30:47;40.28;;;29.13;;
40511;SDS011;26213;52.446;20.706;2022-10-01T02:33:15;41.92;;;27.70;;
40511;SDS011;26213;52.446;20.706;2022-10-01T02:35:43;37.78;;;27.52;;
40511;SDS011;26213;52.446;20.706;2022-10-01T02:38:10;38.72;;;27.25;;
40511;SDS011;26213;52.446;20.706;2022-10-01T02:40:37;45.50;;;33.83;;
40511;SDS011;26213;52.446;20.706;2022-10-01T02:43:07;45.88;;;31.42;;
40511;SDS011;26213;52.446;20.706;2022-10-01T02:45:36;43.13;;;30.55;;
40511;SDS011;26213;52.446;20.706;2022-10-01T02:48:05;41.50;;;30.65;;
40511;SDS011;26213;52.446;20.706;2022-10-01T02:50:43;41.60;;;30.02;;
40511;SDS011;26213;52.446;20.706;2022-10-01T02:53:18;39.17;;;27.48;;
40511;SDS011;26213;52.446;20.706;2022-10-01T02:55:46;36.45;;;26.38;;
40511;SDS011;26213;52.446;20.706;2022-10-01T02:58:14;32.80;;;24.20;;
40511;SDS011;26213;52.446;20.706;2022-10-01T03:03:07;29.58;;;22.92;;
40511;SDS011;26213;52.446;20.706;2022-10-01T03:05:33;33.17;;;23.70;;
40511;SDS011;26213;52.446;20.706;2022-10-01T03:07:58;32.20;;;24.17;;
40511;SDS011;26213;52.446;20.706;2022-10-01T03:10:24;33.50;;;23.95;;
40511;SDS011;26213;52.446;20.706;2022-10-01T03:12:49;32.58;;;23.00;;
40511;SDS011;26213;52.446;20.706;2022-10-01T03:15:16;33.25;;;24.15;;
40511;SDS011;26213;52.446;20.706;2022-10-01T03:17:43;36.00;;;22.83;;
40511;SDS011;26213;52.446;20.706;2022-10-01T03:20:09;30.35;;;23.42;;
40511;SDS011;26213;52.446;20.706;2022-10-01T03:22:34;32.90;;;24.38;;
40511;SDS011;26213;52.446;20.706;2022-10-01T03:25:00;32.45;;;24.30;;
40511;SDS011;26213;52.446;20.706;2022-10-01T03:27:25;39.28;;;27.52;;
40511;SDS011;26213;52.446;20.706;2022-10-01T03:29:51;39.47;;;30.73;;
40511;SDS011;26213;52.446;20.706;2022-10-01T03:32:17;36.10;;;24.70;;
40511;SDS011;26213;52.446;20.706;2022-10-01T03:34:43;31.50;;;24.48;;
40511;SDS011;26213;52.446;20.706;2022-10-01T03:37:09;42.03;;;29.58;;
40511;SDS011;26213;52.446;20.706;2022-10-01T03:39:34;53.13;;;41.65;;
40511;SDS011;26213;52.446;20.706;2022-10-01T03:42:00;57.92;;;41.83;;
40511;SDS011;26213;52.446;20.706;2022-10-01T03:44:26;53.50;;;41.47;;
40511;SDS011;26213;52.446;20.706;2022-10-01T03:46:54;51.83;;;38.28;;
40511;SDS011;26213;52.446;20.706;2022-10-01T03:49:19;56.72;;;37.25;;
40511;SDS011;26213;52.446;20.706;2022-10-01T03:51:45;48.50;;;33.83;;
40511;SDS011;26213;52.446;20.706;2022-10-01T03:54:10;53.72;;;37.65;;
40511;SDS011;26213;52.446;20.706;2022-10-01T03:56:36;55.97;;;38.65;;
40511;SDS011;26213;52.446;20.706;2022-10-01T04:01:30;49.92;;;32.35;;
40511;SDS011;26213;52.446;20.706;2022-10-01T04:03:56;50.53;;;35.08;;
40511;SDS011;26213;52.446;20.706;2022-10-01T04:06:21;47.78;;;33.17;;
40511;SDS011;26213;52.446;20.706;2022-10-01T04:08:47;46.40;;;31.35;;
40511;SDS011;26213;52.446;20.706;2022-10-01T04:11:12;45.50;;;31.48;;
40511;SDS011;26213;52.446;20.706;2022-10-01T04:13:38;77.35;;;53.58;;
40511;SDS011;26213;52.446;20.706;2022-10-01T04:16:04;79.10;;;53.33;;
40511;SDS011;26213;52.446;20.706;2022-10-01T04:18:30;61.13;;;40.80;;
40511;SDS011;26213;52.446;20.706;2022-10-01T04:20:56;66.68;;;42.35;;
40511;SDS011;26213;52.446;20.706;2022-10-01T04:23:22;51.17;;;34.95;;
40511;SDS011;26213;52.446;20.706;2022-10-01T04:25:48;59.42;;;37.58;;
40511;SDS011;26213;52.446;20.706;2022-10-01T04:28:14;92.03;;;49.42;;
40511;SDS011;26213;52.446;20.706;2022-10-01T04:30:40;95.32;;;47.10;;
40511;SDS011;26213;52.446;20.706;2022-10-01T04:33:08;85.33;;;45.17;;
40511;SDS011;26213;52.446;20.706;2022-10-01T04:35:38;82.00;;;39.85;;
40511;SDS011;26213;52.446;20.706;2022-10-01T04:38:08;80.13;;;40.03;;
40511;SDS011;26213;52.446;20.706;2022-10-01T04:40:36;88.03;;;41.30;;
40511;SDS011;26213;52.446;20.706;2022-10-01T04:43:02;140.40;;;43.97;;
40511;SDS011;26213;52.446;20.706;2022-10-01T04:45:29;55.85;;;36.20;;
40511;SDS011;26213;52.446;20.706;2022-10-01T04:47:55;85.40;;;45.72;;
40511;SDS011;26213;52.446;20.706;2022-10-01T04:50:23;78.38;;;44.75;;
40511;SDS011;26213;52.446;20.706;2022-10-01T04:52:50;73.57;;;42.45;;
40511;SDS011;26213;52.446;20.706;2022-10-01T04:55:16;76.72;;;41.65;;
40511;SDS011;26213;52.446;20.706;2022-10-01T04:57:42;140.30;;;48.40;;
40511;SDS011;26213;52.446;20.706;2022-10-01T05:00:09;123.88;;;43.28;;
40511;SDS011;26213;52.446;20.706;2022-10-01T05:02:36;84.75;;;38.53;;
40511;SDS011;26213;52.446;20.706;2022-10-01T05:05:02;84.95;;;41.10;;
40511;SDS011;26213;52.446;20.706;2022-10-01T05:07:30;89.72;;;43.42;;
40511;SDS011;26213;52.446;20.706;2022-10-01T05:09:56;81.68;;;39.63;;
40511;SDS011;26213;52.446;20.706;2022-10-01T05:12:22;129.95;;;59.83;;
40511;SDS011;26213;52.446;20.706;2022-10-01T05:14:52;166.13;;;44.25;;
40511;SDS011;26213;52.446;20.706;2022-10-01T05:17:19;252.40;;;75.53;;
40511;SDS011;26213;52.446;20.706;2022-10-01T05:19:45;156.32;;;59.90;;
40511;SDS011;26213;52.446;20.706;2022-10-01T05:22:10;146.40;;;80.13;;
40511;SDS011;26213;52.446;20.706;2022-10-01T05:24:36;130.57;;;71.07;;
40511;SDS011;26213;52.446;20.706;2022-10-01T05:27:02;111.53;;;59.40;;
40511;SDS011;26213;52.446;20.706;2022-10-01T05:29:28;96.95;;;57.22;;
40511;SDS011;26213;52.446;20.706;2022-10-01T05:31:53;76.63;;;46.20;;
40511;SDS011;26213;52.446;20.706;2022-10-01T05:34:19;78.70;;;37.75;;
40511;SDS011;26213;52.446;20.706;2022-10-01T05:36:44;70.63;;;35.53;;
40511;SDS011;26213;52.446;20.706;2022-10-01T05:39:10;58.53;;;30.88;;
40511;SDS011;26213;52.446;20.706;2022-10-01T05:41:36;43.20;;;27.45;;
40511;SDS011;26213;52.446;20.706;2022-10-01T05:44:04;39.40;;;26.23;;
40511;SDS011;26213;52.446;20.706;2022-10-01T05:46:30;36.90;;;24.83;;
40511;SDS011;26213;52.446;20.706;2022-10-01T05:48:56;34.15;;;23.50;;
40511;SDS011;26213;52.446;20.706;2022-10-01T05:51:22;36.28;;;25.55;;
40511;SDS011;26213;52.446;20.706;2022-10-01T05:53:48;41.65;;;29.08;;
40511;SDS011;26213;52.446;20.706;2022-10-01T05:56:13;36.53;;;27.33;;
40511;SDS011;26213;52.446;20.706;2022-10-01T05:58:39;40.58;;;27.05;;
40511;SDS011;26213;52.446;20.706;2022-10-01T06:01:05;40.85;;;25.25;;
40511;SDS011;26213;52.446;20.706;2022-10-01T06:03:30;85.90;;;45.83;;
40511;SDS011;26213;52.446;20.706;2022-10-01T06:05:56;172.93;;;91.53;;
40511;SDS011;26213;52.446;20.706;2022-10-01T06:08:21;114.15;;;60.67;;
40511;SDS011;26213;52.446;20.706;2022-10-01T06:10:47;83.90;;;46.38;;
40511;SDS011;26213;52.446;20.706;2022-10-01T06:13:13;64.20;;;37.97;;
40511;SDS011;26213;52.446;20.706;2022-10-01T06:15:41;43.30;;;30.63;;
40511;SDS011;26213;52.446;20.706;2022-10-01T06:18:08;42.15;;;30.00;;
40511;SDS011;26213;52.446;20.706;2022-10-01T06:20:35;49.78;;;33.70;;
40511;SDS011;26213;52.446;20.706;2022-10-01T06:23:00;43.47;;;29.58;;
40511;SDS011;26213;52.446;20.706;2022-10-01T06:25:26;35.03;;;25.58;;
40511;SDS011;26213;52.446;20.706;2022-10-01T06:27:56;32.47;;;24.38;;
40511;SDS011;26213;52.446;20.706;2022-10-01T06:30:24;39.20;;;26.17;;
40511;SDS011;26213;52.446;20.706;2022-10-01T06:35:28;34.40;;;26.60;;
40511;SDS011;26213;52.446;20.706;2022-10-01T06:37:54;39.17;;;28.48;;
40511;SDS011;26213;52.446;20.706;2022-10-01T06:40:20;34.05;;;28.20;;
40511;SDS011;26213;52.446;20.706;2022-10-01T06:42:46;37.17;;;27.05;;
40511;SDS011;26213;52.446;20.706;2022-10-01T06:45:12;36.03;;;27.75;;
40511;SDS011;26213;52.446;20.706;2022-10-01T06:47:38;33.55;;;26.90;;
40511;SDS011;26213;52.446;20.706;2022-10-01T06:50:04;38.72;;;27.63;;
40511;SDS011;26213;52.446;20.706;2022-10-01T06:52:30;33.80;;;24.55;;
40511;SDS011;26213;52.446;20.706;2022-10-01T06:55:16;32.83;;;24.05;;
40511;SDS011;26213;52.446;20.706;2022-10-01T06:58:00;30.98;;;22.88;;
40511;SDS011;26213;52.446;20.706;2022-10-01T07:00:30;34.15;;;24.77;;
40511;SDS011;26213;52.446;20.706;2022-10-01T07:02:57;32.42;;;25.52;;
40511;SDS011;26213;52.446;20.706;2022-10-01T07:05:22;39.42;;;25.48;;
40511;SDS011;26213;52.446;20.706;2022-10-01T07:07:48;32.22;;;24.25;;
40511;SDS011;26213;52.446;20.706;2022-10-01T07:10:14;28.25;;;23.70;;
40511;SDS011;26213;52.446;20.706;2022-10-01T07:12:41;28.88;;;24.98;;
40511;SDS011;26213;52.446;20.706;2022-10-01T07:15:06;36.72;;;26.48;;
40511;SDS011;26213;52.446;20.706;2022-10-01T07:17:40;28.90;;;23.45;;
40511;SDS011;26213;52.446;20.706;2022-10-01T07:20:07;30.20;;;22.60;;
40511;SDS011;26213;52.446;20.706;2022-10-01T07:22:33;30.00;;;24.02;;
40511;SDS011;26213;52.446;20.706;2022-10-01T07:24:59;35.38;;;24.80;;
40511;SDS011;26213;52.446;20.706;2022-10-01T07:27:24;27.67;;;22.48;;
40511;SDS011;26213;52.446;20.706;2022-10-01T07:29:50;28.35;;;23.17;;
40511;SDS011;26213;52.446;20.706;2022-10-01T07:32:17;32.17;;;22.65;;
40511;SDS011;26213;52.446;20.706;2022-10-01T07:34:42;32.05;;;23.40;;
40511;SDS011;26213;52.446;20.706;2022-10-01T07:37:08;30.38;;;22.15;;
40511;SDS011;26213;52.446;20.706;2022-10-01T07:39:34;27.65;;;21.05;;
40511;SDS011;26213;52.446;20.706;2022-10-01T07:42:00;27.42;;;20.42;;
40511;SDS011;26213;52.446;20.706;2022-10-01T07:44:26;22.83;;;18.70;;
40511;SDS011;26213;52.446;20.706;2022-10-01T07:46:53;26.13;;;20.77;;
40511;SDS011;26213;52.446;20.706;2022-10-01T07:49:19;30.35;;;21.40;;
40511;SDS011;26213;52.446;20.706;2022-10-01T07:51:45;25.98;;;19.63;;
40511;SDS011;26213;52.446;20.706;2022-10-01T07:54:12;26.75;;;19.85;;
40511;SDS011;26213;52.446;20.706;2022-10-01T07:56:38;27.33;;;19.77;;
40511;SDS011;26213;52.446;20.706;2022-10-01T07:59:03;25.25;;;19.48;;
40511;SDS011;26213;52.446;20.706;2022-10-01T08:01:29;23.98;;;18.17;;
40511;SDS011;26213;52.446;20.706;2022-10-01T08:03:56;23.67;;;18.20;;
40511;SDS011;26213;52.446;20.706;2022-10-01T08:06:21;19.92;;;16.35;;
40511;SDS011;26213;52.446;20.706;2022-10-01T08:08:47;22.58;;;17.02;;
40511;SDS011;26213;52.446;20.706;2022-10-01T08:11:13;22.13;;;18.52;;
40511;SDS011;26213;52.446;20.706;2022-10-01T08:13:42;21.27;;;15.70;;
40511;SDS011;26213;52.446;20.706;2022-10-01T08:16:09;17.90;;;15.07;;
40511;SDS011;26213;52.446;20.706;2022-10-01T08:18:36;18.30;;;14.70;;
40511;SDS011;26213;52.446;20.706;2022-10-01T08:21:02;16.17;;;13.40;;
40511;SDS011;26213;52.446;20.706;2022-10-01T08:23:28;20.05;;;14.07;;
40511;SDS011;26213;52.446;20.706;2022-10-01T08:26:00;22.20;;;13.70;;
40511;SDS011;26213;52.446;20.706;2022-10-01T08:28:29;15.15;;;13.10;;
40511;SDS011;26213;52.446;20.706;2022-10-01T08:30:55;14.65;;;12.25;;
40511;SDS011;26213;52.446;20.706;2022-10-01T08:33:21;15.70;;;11.80;;
40511;SDS011;26213;52.446;20.706;2022-10-01T08:35:47;18.77;;;13.07;;
40511;SDS011;26213;52.446;20.706;2022-10-01T08:38:13;12.82;;;10.77;;
40511;SDS011;26213;52.446;20.706;2022-10-01T08:40:48;18.50;;;12.73;;
40511;SDS011;26213;52.446;20.706;2022-10-01T08:43:23;15.00;;;11.98;;
40511;SDS011;26213;52.446;20.706;2022-10-01T08:46:04;16.58;;;12.65;;
40511;SDS011;26213;52.446;20.706;2022-10-01T08:51:27;16.90;;;12.07;;
40511;SDS011;26213;52.446;20.706;2022-10-01T08:54:23;15.18;;;12.18;;
40511;SDS011;26213;52.446;20.706;2022-10-01T08:56:52;17.45;;;11.57;;
40511;SDS011;26213;52.446;20.706;2022-10-01T09:04:43;13.27;;;10.10;;
40511;SDS011;26213;52.446;20.706;2022-10-01T09:07:19;17.55;;;10.85;;
40511;SDS011;26213;52.446;20.706;2022-10-01T09:21:27;13.50;;;11.18;;
40511;SDS011;26213;52.446;20.706;2022-10-01T09:24:00;14.32;;;10.82;;
40511;SDS011;26213;52.446;20.706;2022-10-01T09:26:33;16.20;;;12.53;;
40511;SDS011;26213;52.446;20.706;2022-10-01T09:29:00;13.75;;;11.82;;
40511;SDS011;26213;52.446;20.706;2022-10-01T09:31:29;11.77;;;9.90;;
40511;SDS011;26213;52.446;20.706;2022-10-01T09:34:11;16.52;;;10.77;;
40511;SDS011;26213;52.446;20.706;2022-10-01T09:42:44;11.98;;;10.45;;
40511;SDS011;26213;52.446;20.706;2022-10-01T09:45:14;17.67;;;11.73;;
40511;SDS011;26213;52.446;20.706;2022-10-01T09:47:44;16.45;;;10.43;;
40511;SDS011;26213;52.446;20.706;2022-10-01T09:50:13;11.88;;;9.75;;
40511;SDS011;26213;52.446;20.706;2022-10-01T09:52:41;10.40;;;8.50;;
40511;SDS011;26213;52.446;20.706;2022-10-01T09:55:28;12.10;;;8.85;;
40511;SDS011;26213;52.446;20.706;2022-10-01T09:58:03;11.15;;;6.90;;
40511;SDS011;26213;52.446;20.706;2022-10-01T10:00:34;9.88;;;7.13;;
40511;SDS011;26213;52.446;20.706;2022-10-01T10:03:01;7.60;;;5.97;;
40511;SDS011;26213;52.446;20.706;2022-10-01T10:05:27;8.48;;;6.45;;
40511;SDS011;26213;52.446;20.706;2022-10-01T10:11:00;8.55;;;6.35;;
40511;SDS011;26213;52.446;20.706;2022-10-01T10:13:38;8.98;;;6.65;;
40511;SDS011;26213;52.446;20.706;2022-10-01T10:16:08;7.85;;;6.25;;
40511;SDS011;26213;52.446;20.706;2022-10-01T10:18:40;9.73;;;6.60;;
40511;SDS011;26213;52.446;20.706;2022-10-01T10:21:15;8.75;;;6.68;;
40511;SDS011;26213;52.446;20.706;2022-10-01T10:23:51;11.57;;;7.65;;
40511;SDS011;26213;52.446;20.706;2022-10-01T10:26:39;8.73;;;6.43;;
40511;SDS011;26213;52.446;20.706;2022-10-01T10:29:06;9.23;;;6.80;;
40511;SDS011;26213;52.446;20.706;2022-10-01T10:31:42;9.73;;;6.40;;
40511;SDS011;26213;52.446;20.706;2022-10-01T10:34:29;8.93;;;6.32;;
40511;SDS011;26213;52.446;20.706;2022-10-01T10:36:57;8.23;;;6.47;;
40511;SDS011;26213;52.446;20.706;2022-10-01T10:39:25;10.57;;;6.83;;
40511;SDS011;26213;52.446;20.706;2022-10-01T10:41:55;8.00;;;6.22;;
40511;SDS011;26213;52.446;20.706;2022-10-01T10:44:22;7.50;;;6.22;;
40511;SDS011;26213;52.446;20.706;2022-10-01T10:46:50;8.45;;;7.00;;
40511;SDS011;26213;52.446;20.706;2022-10-01T10:51:52;9.75;;;7.85;;
40511;SDS011;26213;52.446;20.706;2022-10-01T10:54:20;8.95;;;7.50;;
40511;SDS011;26213;52.446;20.706;2022-10-01T10:56:51;10.13;;;7.47;;
40511;SDS011;26213;52.446;20.706;2022-10-01T10:59:24;8.98;;;5.90;;
40511;SDS011;26213;52.446;20.706;2022-10-01T11:01:49;9.00;;;7.05;;
40511;SDS011;26213;52.446;20.706;2022-10-01T11:07:26;6.53;;;5.30;;
40511;SDS011;26213;52.446;20.706;2022-10-01T11:15:09;7.90;;;5.70;;
40511;SDS011;26213;52.446;20.706;2022-10-01T11:26:17;8.85;;;6.93;;
40511;SDS011;26213;52.446;20.706;2022-10-01T11:31:32;8.65;;;6.85;;
40511;SDS011;26213;52.446;20.706;2022-10-01T11:39:32;10.48;;;7.35;;
40511;SDS011;26213;52.446;20.706;2022-10-01T11:41:59;9.43;;;6.72;;
40511;SDS011;26213;52.446;20.706;2022-10-01T11:44:38;12.65;;;7.55;;
40511;SDS011;26213;52.446;20.706;2022-10-01T11:47:23;8.73;;;6.95;;
40511;SDS011;26213;52.446;20.706;2022-10-01T11:49:53;9.95;;;7.25;;
40511;SDS011;26213;52.446;20.706;2022-10-01T11:58:33;9.40;;;6.75;;
40511;SDS011;26213;52.446;20.706;2022-10-01T12:07:01;8.57;;;6.63;;
40511;SDS011;26213;52.446;20.706;2022-10-01T12:11:49;8.13;;;6.72;;
40511;SDS011;26213;52.446;20.706;2022-10-01T12:14:19;10.35;;;7.85;;
40511;SDS011;26213;52.446;20.706;2022-10-01T12:16:53;9.05;;;7.20;;
40511;SDS011;26213;52.446;20.706;2022-10-01T12:21:55;8.93;;;7.18;;
40511;SDS011;26213;52.446;20.706;2022-10-01T12:24:31;9.25;;;6.75;;
40511;SDS011;26213;52.446;20.706;2022-10-01T12:29:52;10.30;;;8.65;;
40511;SDS011;26213;52.446;20.706;2022-10-01T12:46:04;12.75;;;8.27;;
40511;SDS011;26213;52.446;20.706;2022-10-01T12:48:48;10.75;;;7.70;;
40511;SDS011;26213;52.446;20.706;2022-10-01T12:51:45;9.07;;;7.18;;
40511;SDS011;26213;52.446;20.706;2022-10-01T12:59:58;11.25;;;7.55;;
40511;SDS011;26213;52.446;20.706;2022-10-01T13:02:34;9.95;;;7.18;;
40511;SDS011;26213;52.446;20.706;2022-10-01T13:05:16;10.37;;;7.40;;
40511;SDS011;26213;52.446;20.706;2022-10-01T13:08:34;12.32;;;8.32;;
40511;SDS011;26213;52.446;20.706;2022-10-01T13:13:34;8.80;;;7.90;;
40511;SDS011;26213;52.446;20.706;2022-10-01T13:16:15;9.00;;;7.28;;
40511;SDS011;26213;52.446;20.706;2022-10-01T13:19:22;10.63;;;8.00;;
40511;SDS011;26213;52.446;20.706;2022-10-01T13:37:55;12.98;;;9.43;;
40511;SDS011;26213;52.446;20.706;2022-10-01T13:42:59;10.02;;;8.57;;
40511;SDS011;26213;52.446;20.706;2022-10-01T13:50:40;13.15;;;9.40;;
40511;SDS011;26213;52.446;20.706;2022-10-01T13:53:32;10.77;;;9.23;;
40511;SDS011;26213;52.446;20.706;2022-10-01T13:56:05;12.57;;;10.18;;
40511;SDS011;26213;52.446;20.706;2022-10-01T14:00:57;18.05;;;11.45;;
40511;SDS011;26213;52.446;20.706;2022-10-01T14:06:18;18.95;;;12.10;;
40511;SDS011;26213;52.446;20.706;2022-10-01T14:09:49;14.48;;;11.60;;
40511;SDS011;26213;52.446;20.706;2022-10-01T14:11:49;15.25;;;10.48;;
40511;SDS011;26213;52.446;20.706;2022-10-01T14:14:54;21.85;;;9.73;;
40511;SDS011;26213;52.446;20.706;2022-10-01T14:17:40;12.60;;;9.00;;
40511;SDS011;26213;52.446;20.706;2022-10-01T14:20:07;13.00;;;9.05;;
40511;SDS011;26213;52.446;20.706;2022-10-01T14:25:29;14.68;;;7.97;;
40511;SDS011;26213;52.446;20.706;2022-10-01T14:36:06;11.45;;;8.10;;
40511;SDS011;26213;52.446;20.706;2022-10-01T14:38:35;13.67;;;9.80;;
40511;SDS011;26213;52.446;20.706;2022-10-01T14:41:00;11.32;;;9.43;;
40511;SDS011;26213;52.446;20.706;2022-10-01T14:43:27;9.32;;;6.68;;
40511;SDS011;26213;52.446;20.706;2022-10-01T14:48:24;10.23;;;7.85;;
40511;SDS011;26213;52.446;20.706;2022-10-01T14:50:53;9.10;;;7.07;;
40511;SDS011;26213;52.446;20.706;2022-10-01T14:53:20;9.70;;;7.45;;
40511;SDS011;26213;52.446;20.706;2022-10-01T14:55:48;11.68;;;7.72;;
40511;SDS011;26213;52.446;20.706;2022-10-01T14:58:17;10.73;;;7.70;;
40511;SDS011;26213;52.446;20.706;2022-10-01T15:00:49;14.00;;;7.40;;
40511;SDS011;26213;52.446;20.706;2022-10-01T15:03:15;10.43;;;7.75;;
40511;SDS011;26213;52.446;20.706;2022-10-01T15:05:41;10.00;;;7.70;;
40511;SDS011;26213;52.446;20.706;2022-10-01T15:08:54;10.07;;;7.43;;
40511;SDS011;26213;52.446;20.706;2022-10-01T15:11:02;10.43;;;7.53;;
40511;SDS011;26213;52.446;20.706;2022-10-01T15:13:32;10.43;;;7.93;;
40511;SDS011;26213;52.446;20.706;2022-10-01T15:16:02;10.00;;;7.35;;
40511;SDS011;26213;52.446;20.706;2022-10-01T15:18:27;10.65;;;7.32;;
40511;SDS011;26213;52.446;20.706;2022-10-01T15:20:57;10.05;;;7.70;;
40511;SDS011;26213;52.446;20.706;2022-10-01T15:23:26;11.02;;;7.32;;
40511;SDS011;26213;52.446;20.706;2022-10-01T15:25:54;10.10;;;7.20;;
40511;SDS011;26213;52.446;20.706;2022-10-01T15:28:28;10.80;;;8.68;;
40511;SDS011;26213;52.446;20.706;2022-10-01T15:30:56;11.70;;;8.50;;
40511;SDS011;26213;52.446;20.706;2022-10-01T15:33:28;8.98;;;7.00;;
40511;SDS011;26213;52.446;20.706;2022-10-01T15:35:56;9.77;;;7.20;;
40511;SDS011;26213;52.446;20.706;2022-10-01T15:38:23;10.98;;;8.15;;
40511;SDS011;26213;52.446;20.706;2022-10-01T15:40:51;14.32;;;8.93;;
40511;SDS011;26213;52.446;20.706;2022-10-01T15:43:32;19.92;;;10.93;;
40511;SDS011;26213;52.446;20.706;2022-10-01T15:48:32;13.30;;;8.27;;
40511;SDS011;26213;52.446;20.706;2022-10-01T15:51:02;10.95;;;7.97;;
40511;SDS011;26213;52.446;20.706;2022-10-01T15:53:31;11.35;;;7.65;;
40511;SDS011;26213;52.446;20.706;2022-10-01T15:55:58;10.98;;;9.00;;
40511;SDS011;26213;52.446;20.706;2022-10-01T15:58:26;13.90;;;8.90;;
40511;SDS011;26213;52.446;20.706;2022-10-01T16:00:58;13.35;;;9.27;;
40511;SDS011;26213;52.446;20.706;2022-10-01T16:06:05;14.25;;;9.93;;
40511;SDS011;26213;52.446;20.706;2022-10-01T16:08:35;35.25;;;23.38;;
40511;SDS011;26213;52.446;20.706;2022-10-01T16:11:24;38.05;;;30.85;;
40511;SDS011;26213;52.446;20.706;2022-10-01T16:14:41;28.25;;;19.65;;
40511;SDS011;26213;52.446;20.706;2022-10-01T16:19:45;23.42;;;20.38;;
40511;SDS011;26213;52.446;20.706;2022-10-01T16:22:26;24.20;;;17.30;;
40511;SDS011;26213;52.446;20.706;2022-10-01T16:24:59;16.70;;;12.38;;
40511;SDS011;26213;52.446;20.706;2022-10-01T16:29:59;20.38;;;13.50;;
40511;SDS011;26213;52.446;20.706;2022-10-01T16:32:27;18.75;;;13.95;;
40511;SDS011;26213;52.446;20.706;2022-10-01T16:35:06;19.97;;;14.23;;
40511;SDS011;26213;52.446;20.706;2022-10-01T16:37:52;21.02;;;15.23;;
40511;SDS011;26213;52.446;20.706;2022-10-01T16:40:24;28.70;;;19.88;;
40511;SDS011;26213;52.446;20.706;2022-10-01T16:42:51;34.88;;;23.48;;
40511;SDS011;26213;52.446;20.706;2022-10-01T16:45:18;35.53;;;24.40;;
40511;SDS011;26213;52.446;20.706;2022-10-01T16:47:49;47.47;;;30.50;;
40511;SDS011;26213;52.446;20.706;2022-10-01T16:50:17;65.60;;;38.85;;
40511;SDS011;26213;52.446;20.706;2022-10-01T16:52:44;46.83;;;30.90;;
40511;SDS011;26213;52.446;20.706;2022-10-01T16:55:31;41.38;;;26.30;;
40511;SDS011;26213;52.446;20.706;2022-10-01T16:58:01;48.42;;;28.92;;
40511;SDS011;26213;52.446;20.706;2022-10-01T17:00:27;40.72;;;23.92;;
40511;SDS011;26213;52.446;20.706;2022-10-01T17:02:52;42.35;;;23.75;;
40511;SDS011;26213;52.446;20.706;2022-10-01T17:07:47;38.38;;;24.65;;
40511;SDS011;26213;52.446;20.706;2022-10-01T17:10:13;45.58;;;27.75;;
40511;SDS011;26213;52.446;20.706;2022-10-01T17:12:40;48.33;;;26.80;;
40511;SDS011;26213;52.446;20.706;2022-10-01T17:15:13;45.65;;;26.67;;
40511;SDS011;26213;52.446;20.706;2022-10-01T17:17:41;38.25;;;24.90;;
40511;SDS011;26213;52.446;20.706;2022-10-01T17:20:07;39.95;;;25.48;;
40511;SDS011;26213;52.446;20.706;2022-10-01T17:22:33;63.42;;;34.00;;
40511;SDS011;26213;52.446;20.706;2022-10-01T17:24:58;50.17;;;28.38;;
40511;SDS011;26213;52.446;20.706;2022-10-01T17:27:24;33.38;;;21.98;;
40511;SDS011;26213;52.446;20.706;2022-10-01T17:29:49;42.80;;;26.13;;